Time;durP1;ratioP1;P1;durP2;ratioP2;P2;SDS_P1;SDS_P2;PMS_P1;PMS_P2;Temp;Humidity;BMP_temperature;BMP_pressure;BME280_temperature;BME280_humidity;BME280_pressure;Samples;Min_cycle;Max_cycle;Signal;HPM_P1;HPM_P2
2022/10/11 00:01:43;;;;;;;;;;;18.10;93.90;;;;;;5077134;28;19970;-90
2022/10/11 00:04:09;;;;;;;;;;;18.00;93.90;;;;;;5077317;28;19908;-90
2022/10/11 00:06:37;;;;;;;;;;;18.00;93.90;;;;;;5077582;28;19912;-90
2022/10/11 00:09:06;;;;;;;;;;;18.00;93.90;;;;;;5077667;28;19999;-90
2022/10/11 00:11:32;;;;;;;;;;;18.00;93.90;;;;;;5077724;28;20002;-90
2022/10/11 00:13:57;;;;;;;;;;;18.00;93.90;;;;;;5079778;28;20011;-90
2022/10/11 00:16:23;;;;;;;;;;;18.00;93.90;;;;;;5082727;28;19919;-93
2022/10/11 00:18:49;;;;;;;;;;;18.00;93.90;;;;;;5083631;28;20072;-92
2022/10/11 00:21:15;;;;;;;;;;;18.00;93.90;;;;;;5082770;28;20347;-93
2022/10/11 00:23:41;;;;;;;;;;;18.00;93.80;;;;;;5082856;28;19908;-92
2022/10/11 00:26:07;;;;;;;;;;;18.00;93.90;;;;;;5082812;28;20210;-93
2022/10/11 00:28:33;;;;;;;;;;;17.90;93.80;;;;;;5083553;28;20136;-93
2022/10/11 00:30:59;;;;;;;;;;;17.90;93.80;;;;;;5082088;28;19919;-93
2022/10/11 00:33:24;;;;;;;;;;;17.90;93.80;;;;;;5083585;28;20163;-93
2022/10/11 00:35:50;;;;;;;;;;;17.90;93.80;;;;;;5082085;28;19908;-93
2022/10/11 00:38:16;;;;;;;;;;;17.90;93.80;;;;;;5082275;28;19908;-93
2022/10/11 00:40:42;;;;;;;;;;;17.90;93.80;;;;;;5082364;28;19908;-93
2022/10/11 00:43:14;;;;;;;;;;;17.90;93.80;;;;;;5082561;28;20189;-92
2022/10/11 00:45:39;;;;;;;;;;;17.90;93.80;;;;;;5078886;28;19979;-93
2022/10/11 00:48:12;;;;;;;;;;;17.90;93.70;;;;;;5096610;28;20002;-93
2022/10/11 00:50:37;;;;;;;;;;;17.90;93.70;;;;;;5081694;28;20404;-93
2022/10/11 00:53:06;;;;;;;;;;;17.90;93.70;;;;;;5079490;28;20015;-92
2022/10/11 00:55:35;;;;;;;;;;;17.80;93.70;;;;;;5079787;28;19981;-92
2022/10/11 00:58:02;;;;;;;;;;;17.80;93.70;;;;;;5079564;28;19939;-93
2022/10/11 01:00:28;;;;;;;;;;;17.80;93.70;;;;;;5078152;28;19908;-93
2022/10/11 01:02:54;;;;;;;;;;;17.80;93.70;;;;;;5078342;28;20225;-92
2022/10/11 01:05:19;;;;;;;;;;;17.80;93.70;;;;;;5077689;28;19908;-93
2022/10/11 01:07:46;;;;;;;;;;;17.80;93.70;;;;;;5079767;28;20323;-91
2022/10/11 01:10:12;;;;;;;;;;;17.80;93.70;;;;;;5077000;28;19938;-91
2022/10/11 01:12:51;;;;;;;;;;;17.80;93.70;;;;;;5077874;28;20152;-90
2022/10/11 01:15:16;;;;;;;;;;;17.80;93.70;;;;;;5077780;28;20006;-91
2022/10/11 01:17:52;;;;;;;;;;;17.80;93.70;;;;;;5096435;28;20286;-90
2022/10/11 01:20:18;;;;;;;;;;;17.70;93.60;;;;;;5077727;28;20286;-90
2022/10/11 01:23:06;;;;;;;;;;;17.70;93.60;;;;;;5097059;28;19966;-91
2022/10/11 01:25:46;;;;;;;;;;;17.70;93.60;;;;;;5078163;28;19970;-91
2022/10/11 01:28:20;;;;;;;;;;;17.70;93.50;;;;;;5079124;28;20357;-91
2022/10/11 01:30:46;;;;;;;;;;;17.70;93.60;;;;;;5097190;28;19908;-91
2022/10/11 01:33:23;;;;;;;;;;;17.70;93.50;;;;;;5080745;28;19927;-91
2022/10/11 01:35:48;;;;;;;;;;;17.70;93.60;;;;;;5080432;28;19919;-90
2022/10/11 01:38:20;;;;;;;;;;;17.70;93.50;;;;;;5096745;28;19908;-91
2022/10/11 01:40:51;;;;;;;;;;;17.70;93.50;;;;;;5096836;28;19912;-91
2022/10/11 01:43:18;;;;;;;;;;;17.70;93.50;;;;;;5079919;28;19912;-91
2022/10/11 01:45:44;;;;;;;;;;;17.70;93.50;;;;;;5079690;28;20240;-91
2022/10/11 01:48:11;;;;;;;;;;;17.60;93.50;;;;;;5079818;28;19935;-91
2022/10/11 01:50:39;;;;;;;;;;;17.60;93.40;;;;;;5079543;28;19908;-91
2022/10/11 01:53:15;;;;;;;;;;;17.60;93.40;;;;;;5078579;28;19916;-90
2022/10/11 01:55:48;;;;;;;;;;;17.60;93.40;;;;;;5078504;28;19908;-91
2022/10/11 01:58:19;;;;;;;;;;;17.60;93.40;;;;;;5078145;28;19908;-91
2022/10/11 02:00:52;;;;;;;;;;;17.60;93.40;;;;;;5096791;28;20111;-91
2022/10/11 02:03:27;;;;;;;;;;;17.60;93.40;;;;;;5080213;28;19908;-91
2022/10/11 02:05:52;;;;;;;;;;;17.60;93.30;;;;;;5079812;28;19919;-91
2022/10/11 02:08:25;;;;;;;;;;;17.60;93.30;;;;;;5097707;28;19915;-93
2022/10/11 02:10:54;;;;;;;;;;;17.60;93.60;;;;;;5096510;28;20142;-93
2022/10/11 02:13:40;;;;;;;;;;;17.50;93.30;;;;;;5078653;28;19916;-92
2022/10/11 02:16:10;;;;;;;;;;;17.60;93.30;;;;;;5078564;28;19916;-93
2022/10/11 02:18:38;;;;;;;;;;;17.50;93.30;;;;;;5078975;28;20177;-92
2022/10/11 02:21:05;;;;;;;;;;;17.50;93.30;;;;;;5079829;28;19914;-92
2022/10/11 02:23:37;;;;;;;;;;;17.50;93.30;;;;;;5078858;28;19923;-92
2022/10/11 02:26:05;;;;;;;;;;;17.50;93.30;;;;;;5078805;28;19912;-92
2022/10/11 02:28:32;;;;;;;;;;;17.50;93.30;;;;;;5079098;28;19932;-92
2022/10/11 02:30:59;;;;;;;;;;;17.50;93.20;;;;;;5078896;28;20278;-92
2022/10/11 02:33:45;;;;;;;;;;;17.50;93.20;;;;;;5078123;28;19924;-92
2022/10/11 02:36:14;;;;;;;;;;;17.50;93.20;;;;;;5071776;28;19990;-92
2022/10/11 02:38:46;;;;;;;;;;;17.40;93.20;;;;;;5079345;28;19908;-92
2022/10/11 02:41:17;;;;;;;;;;;17.40;93.20;;;;;;5079180;28;19908;-92
2022/10/11 02:43:49;;;;;;;;;;;17.40;93.20;;;;;;5078980;28;19912;-91
2022/10/11 02:46:15;;;;;;;;;;;17.40;93.20;;;;;;5077686;28;19912;-91
2022/10/11 02:48:41;;;;;;;;;;;17.40;93.20;;;;;;5076846;28;19908;-91
2022/10/11 02:51:10;;;;;;;;;;;17.40;93.20;;;;;;5078983;28;19955;-93
2022/10/11 02:53:36;;;;;;;;;;;17.40;93.10;;;;;;5078091;28;19973;-91
2022/10/11 02:56:01;;;;;;;;;;;17.40;93.10;;;;;;5078866;28;19919;-90
2022/10/11 02:58:27;;;;;;;;;;;17.40;93.10;;;;;;5078572;28;20209;-91
2022/10/11 03:00:53;;;;;;;;;;;17.40;93.10;;;;;;5078287;28;20094;-91
2022/10/11 03:03:19;;;;;;;;;;;17.40;93.10;;;;;;5076866;28;19984;-91
2022/10/11 03:05:44;;;;;;;;;;;17.30;93.10;;;;;;5077229;28;20275;-91
2022/10/11 03:08:11;;;;;;;;;;;17.30;93.10;;;;;;5093888;28;20298;-91
2022/10/11 03:10:37;;;;;;;;;;;17.30;93.10;;;;;;5077111;28;19912;-91
2022/10/11 03:13:03;;;;;;;;;;;17.30;93.10;;;;;;5076253;28;20003;-92
2022/10/11 03:15:29;;;;;;;;;;;17.30;93.10;;;;;;5077172;28;19908;-91
2022/10/11 03:17:55;;;;;;;;;;;17.30;93.10;;;;;;5076770;28;19926;-91
2022/10/11 03:20:20;;;;;;;;;;;17.30;93.10;;;;;;5077071;28;19977;-91
2022/10/11 03:22:49;;;;;;;;;;;17.30;93.10;;;;;;5077420;28;19986;-91
2022/10/11 03:25:14;;;;;;;;;;;17.30;93.10;;;;;;5095192;28;19912;-91
2022/10/11 03:27:40;;;;;;;;;;;17.20;93.00;;;;;;5076717;28;19927;-91
2022/10/11 03:30:07;;;;;;;;;;;17.20;93.00;;;;;;5075877;28;19912;-91
2022/10/11 03:32:33;;;;;;;;;;;17.20;93.00;;;;;;5075887;28;20012;-91
2022/10/11 03:34:59;;;;;;;;;;;17.20;93.00;;;;;;5075464;28;19919;-91
2022/10/11 03:37:25;;;;;;;;;;;17.20;93.00;;;;;;5075548;28;19904;-91
2022/10/11 03:39:50;;;;;;;;;;;17.20;93.00;;;;;;5074916;28;19916;-91
2022/10/11 03:42:16;;;;;;;;;;;17.20;92.90;;;;;;5074579;28;19994;-91
2022/10/11 03:44:42;;;;;;;;;;;17.20;92.90;;;;;;5073551;28;19974;-91
2022/10/11 03:47:07;;;;;;;;;;;17.20;93.00;;;;;;5073483;28;20260;-92
2022/10/11 03:49:33;;;;;;;;;;;17.20;93.00;;;;;;5074637;28;19912;-93
2022/10/11 03:51:59;;;;;;;;;;;17.10;92.90;;;;;;5075583;28;19908;-93
2022/10/11 03:54:24;;;;;;;;;;;17.10;92.90;;;;;;5074464;28;19908;-93
2022/10/11 03:56:50;;;;;;;;;;;17.10;92.90;;;;;;5073366;28;19985;-93
2022/10/11 03:59:16;;;;;;;;;;;17.10;92.90;;;;;;5074956;28;20383;-93
2022/10/11 04:01:41;;;;;;;;;;;17.10;92.90;;;;;;5074104;28;19919;-93
2022/10/11 04:04:07;;;;;;;;;;;17.10;92.90;;;;;;5073023;28;20305;-93
2022/10/11 04:06:33;;;;;;;;;;;17.10;92.90;;;;;;5074441;28;19912;-93
2022/10/11 04:08:58;;;;;;;;;;;17.10;92.90;;;;;;5074236;28;19913;-93
2022/10/11 04:11:24;;;;;;;;;;;17.10;92.90;;;;;;5074419;28;19948;-92
2022/10/11 04:13:53;;;;;;;;;;;17.10;92.90;;;;;;5074350;28;19996;-92
2022/10/11 04:16:18;;;;;;;;;;;17.10;92.90;;;;;;5075957;28;19987;-93
2022/10/11 04:18:44;;;;;;;;;;;17.10;92.90;;;;;;5074018;28;20002;-93
2022/10/11 04:21:10;;;;;;;;;;;17.00;92.80;;;;;;5074489;28;19908;-92
2022/10/11 04:23:35;;;;;;;;;;;17.00;92.80;;;;;;5072962;28;19958;-93
2022/10/11 04:26:05;;;;;;;;;;;17.00;92.80;;;;;;5072461;28;19965;-92
2022/10/11 04:28:31;;;;;;;;;;;17.00;92.80;;;;;;5071689;28;19912;-93
2022/10/11 04:30:57;;;;;;;;;;;17.00;92.80;;;;;;5069692;28;19908;-93
2022/10/11 04:33:23;;;;;;;;;;;17.00;92.80;;;;;;5069529;28;19916;-93
2022/10/11 04:35:52;;;;;;;;;;;17.00;92.80;;;;;;5071096;28;20455;-93
2022/10/11 04:38:17;;;;;;;;;;;17.00;92.70;;;;;;5071105;28;20014;-93
2022/10/11 04:40:43;;;;;;;;;;;17.00;92.70;;;;;;5070657;28;20241;-91
2022/10/11 04:43:09;;;;;;;;;;;16.90;92.70;;;;;;5070285;28;19969;-93
2022/10/11 04:45:34;;;;;;;;;;;16.90;92.70;;;;;;5071764;28;19943;-93
2022/10/11 04:48:00;;;;;;;;;;;16.90;92.70;;;;;;5070522;28;19935;-93
2022/10/11 04:50:26;;;;;;;;;;;16.90;92.70;;;;;;5070963;28;19908;-93
2022/10/11 04:52:51;;;;;;;;;;;16.90;92.70;;;;;;5072332;28;19908;-93
2022/10/11 04:55:17;;;;;;;;;;;16.90;92.70;;;;;;5072084;28;20170;-93
2022/10/11 04:57:42;;;;;;;;;;;16.90;92.70;;;;;;5070727;28;19908;-92
2022/10/11 05:00:28;;;;;;;;;;;16.90;92.70;;;;;;5069127;28;19908;-92
2022/10/11 05:02:54;;;;;;;;;;;16.90;92.70;;;;;;5075096;28;19908;-92
2022/10/11 05:05:19;;;;;;;;;;;16.80;92.70;;;;;;5074119;28;19908;-92
2022/10/11 05:07:45;;;;;;;;;;;16.80;92.70;;;;;;5075060;28;19916;-92
2022/10/11 05:10:11;;;;;;;;;;;16.80;92.60;;;;;;5074550;28;19941;-91
2022/10/11 05:12:36;;;;;;;;;;;16.80;92.70;;;;;;5073951;28;19908;-92
2022/10/11 05:15:02;;;;;;;;;;;16.80;92.70;;;;;;5074330;28;19912;-91
2022/10/11 05:17:28;;;;;;;;;;;16.80;92.60;;;;;;5074820;28;19912;-92
2022/10/11 05:19:53;;;;;;;;;;;16.80;92.60;;;;;;5075492;28;19908;-92
2022/10/11 05:22:19;;;;;;;;;;;16.80;92.60;;;;;;5074594;28;19908;-92
2022/10/11 05:24:45;;;;;;;;;;;16.80;92.70;;;;;;5076629;28;20087;-92
2022/10/11 05:27:10;;;;;;;;;;;16.80;92.70;;;;;;5075655;28;20010;-92
2022/10/11 05:29:36;;;;;;;;;;;16.70;92.60;;;;;;5074504;28;19908;-92
2022/10/11 05:32:01;;;;;;;;;;;16.70;92.60;;;;;;5072287;28;20064;-91
2022/10/11 05:34:27;;;;;;;;;;;16.70;92.60;;;;;;5072952;28;19908;-92
2022/10/11 05:36:52;;;;;;;;;;;16.70;92.60;;;;;;5071316;28;19908;-91
2022/10/11 05:39:18;;;;;;;;;;;16.70;92.60;;;;;;5072884;28;20298;-92
2022/10/11 05:41:44;;;;;;;;;;;16.70;92.50;;;;;;5072781;28;19908;-91
2022/10/11 05:44:09;;;;;;;;;;;16.70;92.50;;;;;;5071676;28;19946;-92
2022/10/11 05:46:35;;;;;;;;;;;16.70;92.50;;;;;;5074123;28;20137;-92
2022/10/11 05:49:01;;;;;;;;;;;16.70;92.40;;;;;;5072378;28;19958;-92
2022/10/11 05:51:27;;;;;;;;;;;16.70;92.40;;;;;;5071024;28;20078;-92
2022/10/11 05:53:52;;;;;;;;;;;16.70;92.40;;;;;;5072339;28;19908;-92
2022/10/11 05:56:23;;;;;;;;;;;16.70;92.40;;;;;;5071609;28;19916;-91
2022/10/11 05:58:49;;;;;;;;;;;16.70;92.30;;;;;;5070462;28;19940;-91
2022/10/11 06:01:23;;;;;;;;;;;16.70;92.30;;;;;;5075915;28;19947;-94
2022/10/11 06:03:48;;;;;;;;;;;16.70;92.20;;;;;;5074970;28;19908;-93
2022/10/11 06:06:14;;;;;;;;;;;16.70;92.20;;;;;;5074579;28;20208;-92
2022/10/11 06:08:39;;;;;;;;;;;16.70;92.20;;;;;;5076626;28;19919;-93
2022/10/11 06:11:13;;;;;;;;;;;16.70;92.10;;;;;;5073184;28;20051;-93
2022/10/11 06:13:39;;;;;;;;;;;16.70;92.00;;;;;;5074773;28;19908;-93
2022/10/11 06:16:05;;;;;;;;;;;16.80;91.90;;;;;;5075349;28;19908;-93
2022/10/11 06:18:31;;;;;;;;;;;16.80;91.80;;;;;;5075000;28;19955;-92
2022/10/11 06:20:57;;;;;;;;;;;16.80;91.70;;;;;;5074964;28;19939;-93
2022/10/11 06:23:23;;;;;;;;;;;16.80;91.60;;;;;;5073595;28;19908;-93
2022/10/11 06:25:59;;;;;;;;;;;16.90;91.50;;;;;;5075290;28;19912;-93
2022/10/11 06:28:28;;;;;;;;;;;16.90;91.40;;;;;;5074218;28;20105;-93
2022/10/11 06:30:54;;;;;;;;;;;16.90;91.30;;;;;;5076032;28;19907;-93
2022/10/11 06:33:20;;;;;;;;;;;17.00;91.20;;;;;;5073810;28;20438;-92
2022/10/11 06:35:46;;;;;;;;;;;17.40;90.40;;;;;;5074626;28;19999;-92
2022/10/11 06:38:11;;;;;;;;;;;17.90;88.20;;;;;;5076628;28;19992;-93
2022/10/11 06:40:40;;;;;;;;;;;18.30;84.30;;;;;;5075244;28;19908;-93
2022/10/11 06:43:06;;;;;;;;;;;18.60;81.40;;;;;;5074463;28;19973;-93
2022/10/11 06:45:32;;;;;;;;;;;18.80;79.00;;;;;;5074295;28;19915;-93
2022/10/11 06:47:57;;;;;;;;;;;19.20;76.30;;;;;;5074313;28;19908;-93
2022/10/11 06:50:23;;;;;;;;;;;19.40;73.20;;;;;;5072781;28;20159;-93
2022/10/11 06:52:48;;;;;;;;;;;19.70;71.00;;;;;;5073254;28;20273;-93
2022/10/11 06:55:17;;;;;;;;;;;20.10;68.40;;;;;;5075599;28;20032;-93
2022/10/11 06:57:42;;;;;;;;;;;20.30;66.30;;;;;;5072262;28;19918;-93
2022/10/11 07:00:08;;;;;;;;;;;20.50;64.50;;;;;;5072090;28;19909;-93
2022/10/11 07:02:34;;;;;;;;;;;20.70;63.10;;;;;;5073364;28;19913;-93
2022/10/11 07:04:59;;;;;;;;;;;21.10;61.40;;;;;;5073160;28;20072;-93
2022/10/11 07:07:25;;;;;;;;;;;21.30;59.70;;;;;;5072864;28;19916;-92
2022/10/11 07:09:51;;;;;;;;;;;21.60;58.90;;;;;;5072662;28;19908;-93
2022/10/11 07:12:16;;;;;;;;;;;22.00;57.80;;;;;;5069160;28;19997;-93
2022/10/11 07:14:42;;;;;;;;;;;22.40;56.70;;;;;;5070655;28;19942;-93
2022/10/11 07:17:07;;;;;;;;;;;22.80;55.80;;;;;;5071511;28;19908;-93
2022/10/11 07:19:33;;;;;;;;;;;23.10;55.00;;;;;;5071146;28;20266;-93
2022/10/11 07:21:59;;;;;;;;;;;23.20;54.40;;;;;;5072211;28;19947;-93
2022/10/11 07:24:24;;;;;;;;;;;23.10;54.10;;;;;;5069581;28;20304;-93
2022/10/11 07:26:50;;;;;;;;;;;23.10;54.00;;;;;;5086183;28;19973;-93
2022/10/11 07:29:15;;;;;;;;;;;23.10;53.90;;;;;;5070257;28;19911;-93
2022/10/11 07:31:41;;;;;;;;;;;23.30;53.70;;;;;;5090998;28;19920;-93
2022/10/11 07:34:07;;;;;;;;;;;23.80;53.10;;;;;;5074473;28;19981;-93
2022/10/11 07:36:33;;;;;;;;;;;24.20;52.40;;;;;;5074736;28;20216;-94
2022/10/11 07:38:59;;;;;;;;;;;24.50;51.90;;;;;;5073067;28;19919;-93
2022/10/11 07:41:24;;;;;;;;;;;24.60;51.40;;;;;;5072493;28;19908;-93
2022/10/11 07:43:50;;;;;;;;;;;24.60;51.20;;;;;;5071130;28;20008;-91
2022/10/11 07:46:17;;;;;;;;;;;24.90;50.90;;;;;;5086394;28;19977;-91
2022/10/11 07:48:42;;;;;;;;;;;25.10;50.50;;;;;;5069236;28;19908;-91
2022/10/11 07:51:13;;;;;;;;;;;25.40;50.10;;;;;;5069126;28;19919;-93
2022/10/11 07:53:41;;;;;;;;;;;25.50;49.90;;;;;;5068580;28;20002;-92
2022/10/11 07:56:08;;;;;;;;;;;25.70;49.60;;;;;;5069237;28;19904;-92
2022/10/11 07:58:34;;;;;;;;;;;25.90;49.30;;;;;;5069271;28;20001;-91
2022/10/11 08:00:59;;;;;;;;;;;25.90;49.10;;;;;;5067827;28;19920;-91
2022/10/11 08:03:25;;;;;;;;;;;25.90;48.90;;;;;;5070405;28;19912;-91
2022/10/11 08:05:51;;;;;;;;;;;26.10;48.80;;;;;;5068684;28;20036;-91
2022/10/11 08:08:17;;;;;;;;;;;26.40;48.50;;;;;;5087948;28;19915;-91
2022/10/11 08:10:43;;;;;;;;;;;26.60;48.20;;;;;;5067830;28;20277;-92
2022/10/11 08:13:09;;;;;;;;;;;26.50;47.90;;;;;;5068677;28;19908;-91
2022/10/11 08:15:34;;;;;;;;;;;26.40;48.00;;;;;;5069035;28;20187;-93
2022/10/11 08:18:00;;;;;;;;;;;26.50;47.90;;;;;;5068053;28;19974;-92
2022/10/11 08:20:25;;;;;;;;;;;26.60;47.70;;;;;;5069172;28;20081;-93
2022/10/11 08:22:51;;;;;;;;;;;26.70;47.60;;;;;;5070274;28;19919;-92
2022/10/11 08:25:17;;;;;;;;;;;26.70;47.50;;;;;;5068395;28;20018;-93
2022/10/11 08:27:42;;;;;;;;;;;26.80;47.50;;;;;;5067894;28;20077;-92
2022/10/11 08:30:08;;;;;;;;;;;26.50;47.40;;;;;;5069598;28;19927;-92
2022/10/11 08:32:34;;;;;;;;;;;26.50;47.60;;;;;;5068671;28;19916;-93
2022/10/11 08:35:00;;;;;;;;;;;26.60;47.40;;;;;;5070379;28;19963;-93
2022/10/11 08:37:25;;;;;;;;;;;26.40;47.50;;;;;;5071527;28;19908;-92
2022/10/11 08:39:51;;;;;;;;;;;26.80;47.50;;;;;;5072061;28;19908;-92
2022/10/11 08:42:36;;;;;;;;;;;27.00;47.20;;;;;;5070904;28;19919;-92
2022/10/11 08:45:04;;;;;;;;;;;27.20;47.00;;;;;;5088231;28;19915;-92
2022/10/11 08:47:38;;;;;;;;;;;27.00;47.00;;;;;;5069388;28;20325;-92
2022/10/11 08:50:06;;;;;;;;;;;27.10;47.10;;;;;;5088637;28;19912;-91
2022/10/11 08:52:44;;;;;;;;;;;27.40;46.90;;;;;;5073550;28;20015;-91
2022/10/11 08:55:30;;;;;;;;;;;27.50;46.70;;;;;;5071446;28;19907;-92
2022/10/11 08:57:55;;;;;;;;;;;27.60;46.60;;;;;;5072502;28;19912;-91
2022/10/11 09:00:22;;;;;;;;;;;27.60;46.60;;;;;;5073161;28;19908;-92
2022/10/11 09:03:03;;;;;;;;;;;27.80;46.60;;;;;;5072153;28;19920;-91
2022/10/11 09:05:42;;;;;;;;;;;27.90;46.40;;;;;;5088642;28;19958;-91
2022/10/11 09:08:17;;;;;;;;;;;28.00;46.30;;;;;;5072691;28;19916;-91
2022/10/11 09:11:03;;;;;;;;;;;28.10;46.10;;;;;;5091127;28;19932;-91
2022/10/11 09:13:50;;;;;;;;;;;28.30;46.00;;;;;;5073751;28;19940;-91
2022/10/11 09:16:16;;;;;;;;;;;28.40;45.90;;;;;;5073257;28;19989;-91
2022/10/11 09:18:42;;;;;;;;;;;28.20;46.20;;;;;;5089522;28;20281;-91
2022/10/11 09:21:07;;;;;;;;;;;28.10;45.80;;;;;;5090187;28;19965;-91
2022/10/11 09:23:33;;;;;;;;;;;28.40;45.80;;;;;;5089079;28;19916;-91
2022/10/11 09:26:10;;;;;;;;;;;28.50;45.60;;;;;;5089973;28;19912;-91
2022/10/11 09:28:36;;;;;;;;;;;28.50;45.50;;;;;;5088022;28;19938;-91
2022/10/11 09:31:02;;;;;;;;;;;28.40;45.30;;;;;;5088376;28;20210;-91
2022/10/11 09:33:32;;;;;;;;;;;28.30;45.40;;;;;;5072404;28;19916;-91
2022/10/11 09:35:58;;;;;;;;;;;27.90;45.40;;;;;;5071990;28;20076;-92
2022/10/11 09:38:33;;;;;;;;;;;27.30;45.50;;;;;;5072320;28;20186;-91
2022/10/11 09:41:03;;;;;;;;;;;26.60;46.00;;;;;;5089037;28;20070;-91
2022/10/11 09:43:29;;;;;;;;;;;25.80;46.60;;;;;;5072022;28;20164;-91
2022/10/11 09:45:54;;;;;;;;;;;25.20;47.20;;;;;;5071628;28;19935;-92
2022/10/11 09:48:26;;;;;;;;;;;24.70;47.90;;;;;;5073485;28;19919;-91
2022/10/11 09:50:53;;;;;;;;;;;24.30;48.60;;;;;;5070892;28;20009;-92
2022/10/11 09:53:20;;;;;;;;;;;23.90;49.50;;;;;;5069335;28;20279;-91
2022/10/11 09:55:49;;;;;;;;;;;23.60;49.50;;;;;;5068734;28;20274;-91
2022/10/11 09:58:24;;;;;;;;;;;23.30;50.00;;;;;;5069726;28;19985;-91
2022/10/11 10:01:10;;;;;;;;;;;23.10;50.40;;;;;;5069092;28;19919;-91
2022/10/11 10:03:40;;;;;;;;;;;23.00;50.80;;;;;;5068839;28;19952;-91
2022/10/11 10:06:21;;;;;;;;;;;22.80;51.20;;;;;;5065800;28;19912;-91
2022/10/11 10:08:46;;;;;;;;;;;22.60;51.50;;;;;;5066110;28;19916;-91
2022/10/11 10:11:12;;;;;;;;;;;22.50;51.80;;;;;;5068059;28;19908;-92
2022/10/11 10:13:45;;;;;;;;;;;22.50;52.10;;;;;;5069522;28;20178;-91
2022/10/11 10:16:27;;;;;;;;;;;22.40;52.40;;;;;;5086718;28;20018;-92
2022/10/11 10:18:57;;;;;;;;;;;22.30;52.70;;;;;;5071786;28;19909;-92
2022/10/11 10:21:30;;;;;;;;;;;22.20;53.00;;;;;;5070411;28;20926;-92
2022/10/11 10:23:58;;;;;;;;;;;22.20;53.20;;;;;;5069662;28;20147;-92
2022/10/11 10:26:25;;;;;;;;;;;22.10;53.50;;;;;;5069992;28;19920;-91
2022/10/11 10:28:53;;;;;;;;;;;22.00;53.70;;;;;;5069777;28;19954;-92
2022/10/11 10:31:39;;;;;;;;;;;22.00;54.00;;;;;;5083876;28;19908;-91
2022/10/11 10:34:13;;;;;;;;;;;21.90;54.20;;;;;;5065401;28;19916;-91
2022/10/11 10:36:54;;;;;;;;;;;21.90;54.50;;;;;;5069548;28;19916;-91
2022/10/11 10:39:38;;;;;;;;;;;21.80;54.70;;;;;;5069007;28;20165;-91
2022/10/11 10:42:12;;;;;;;;;;;21.80;55.00;;;;;;5067477;28;20282;-91
2022/10/11 10:44:38;;;;;;;;;;;21.70;55.20;;;;;;5067313;28;19923;-91
2022/10/11 10:47:04;;;;;;;;;;;21.70;55.40;;;;;;5084523;28;19912;-91
2022/10/11 10:49:43;;;;;;;;;;;21.70;55.60;;;;;;5087406;28;19908;-91
2022/10/11 10:52:09;;;;;;;;;;;21.60;55.80;;;;;;5069865;28;19976;-92
2022/10/11 10:54:38;;;;;;;;;;;21.60;56.00;;;;;;5084959;28;20071;-91
2022/10/11 10:57:10;;;;;;;;;;;21.60;56.20;;;;;;5086613;28;19909;-90
2022/10/11 10:59:53;;;;;;;;;;;21.50;56.40;;;;;;5066263;28;20240;-93
2022/10/11 11:02:28;;;;;;;;;;;21.40;56.60;;;;;;5085227;28;19915;-92
2022/10/11 11:05:17;;;;;;;;;;;21.40;56.80;;;;;;5072318;28;19943;-93
2022/10/11 11:07:45;;;;;;;;;;;21.40;57.10;;;;;;5075947;28;19972;-93
2022/10/11 11:10:14;;;;;;;;;;;21.30;57.20;;;;;;5070822;28;19912;-93
2022/10/11 11:13:00;;;;;;;;;;;21.30;57.40;;;;;;5069988;28;19908;-93
2022/10/11 11:15:28;;;;;;;;;;;21.30;57.60;;;;;;5078231;28;19912;-94
2022/10/11 11:17:57;;;;;;;;;;;21.30;57.70;;;;;;5092028;28;19965;-94
2022/10/11 11:20:45;;;;;;;;;;;21.30;57.80;;;;;;5096612;28;19916;-94
2022/10/11 11:23:31;;;;;;;;;;;21.30;57.90;;;;;;5076951;28;20021;-93
2022/10/11 11:25:56;;;;;;;;;;;21.20;57.80;;;;;;5077154;28;19915;-94
2022/10/11 11:28:32;;;;;;;;;;;21.20;57.90;;;;;;5097610;28;19916;-94
2022/10/11 11:31:17;;;;;;;;;;;21.30;58.00;;;;;;5074332;28;20154;-92
2022/10/11 11:33:48;;;;;;;;;;;21.20;58.10;;;;;;5070150;28;19996;-92
2022/10/11 11:36:16;;;;;;;;;;;21.20;57.90;;;;;;5095157;28;19950;-93
2022/10/11 11:38:44;;;;;;;;;;;21.20;58.50;;;;;;5079344;28;20004;-93
2022/10/11 11:41:19;;;;;;;;;;;21.10;58.30;;;;;;5089373;28;19908;-93
2022/10/11 11:43:53;;;;;;;;;;;21.10;58.30;;;;;;5076456;28;19915;-93
2022/10/11 11:46:21;;;;;;;;;;;21.10;58.40;;;;;;5073015;28;19977;-93
2022/10/11 11:48:49;;;;;;;;;;;21.10;58.70;;;;;;5071210;28;19919;-92
2022/10/11 11:51:18;;;;;;;;;;;21.10;58.80;;;;;;5073101;28;19908;-93
2022/10/11 11:53:44;;;;;;;;;;;21.00;58.90;;;;;;5071501;28;19908;-93
2022/10/11 11:56:30;;;;;;;;;;;21.00;59.10;;;;;;5089395;28;19915;-92
2022/10/11 11:59:05;;;;;;;;;;;21.00;59.30;;;;;;5068857;28;19908;-93
2022/10/11 12:01:31;;;;;;;;;;;20.90;59.40;;;;;;5071366;28;20018;-93
2022/10/11 12:04:00;;;;;;;;;;;20.90;59.70;;;;;;5093538;28;20223;-93
2022/10/11 12:06:30;;;;;;;;;;;20.80;59.90;;;;;;5080131;28;19913;-93
2022/10/11 12:09:00;;;;;;;;;;;20.80;60.00;;;;;;5073209;28;19947;-93
2022/10/11 12:11:38;;;;;;;;;;;20.70;60.20;;;;;;5074647;28;20298;-93
2022/10/11 12:14:26;;;;;;;;;;;20.70;60.60;;;;;;5075575;28;19908;-93
2022/10/11 12:17:10;;;;;;;;;;;20.70;61.10;;;;;;5069871;28;19915;-91
2022/10/11 12:19:36;;;;;;;;;;;20.60;61.00;;;;;;5069338;28;19908;-91
2022/10/11 12:22:18;;;;;;;;;;;20.60;61.30;;;;;;5069272;28;20328;-91
2022/10/11 12:24:58;;;;;;;;;;;20.60;61.80;;;;;;5069027;28;19939;-91
2022/10/11 12:27:37;;;;;;;;;;;20.50;61.80;;;;;;5068788;28;19985;-92
2022/10/11 12:30:04;;;;;;;;;;;20.50;62.50;;;;;;5068017;28;19920;-91
2022/10/11 12:32:33;;;;;;;;;;;20.50;62.90;;;;;;5067106;28;19916;-92
2022/10/11 12:35:17;;;;;;;;;;;20.50;63.20;;;;;;5091431;28;19974;-92
2022/10/11 12:37:48;;;;;;;;;;;20.50;63.30;;;;;;5092187;28;20203;-92
2022/10/11 12:40:34;;;;;;;;;;;20.50;63.60;;;;;;5076313;28;19960;-91
2022/10/11 12:43:15;;;;;;;;;;;20.50;63.50;;;;;;5075026;28;20194;-93
2022/10/11 12:45:46;;;;;;;;;;;20.40;63.70;;;;;;5100013;22;19925;-11
2022/10/11 12:48:15;;;;;;;;;;;20.40;63.60;;;;;;5076351;28;19927;-11
2022/10/11 12:50:50;;;;;;;;;;;20.50;63.30;;;;;;5095250;28;19908;-9
2022/10/11 12:53:24;;;;;;;;;;;20.40;63.40;;;;;;5093425;28;19908;-11
2022/10/11 12:55:49;;;;;;;;;;;20.40;63.30;;;;;;5094412;28;20002;-10
2022/10/11 12:58:30;;;;;;;;;;;20.40;63.20;;;;;;5093889;28;19995;-9
2022/10/11 13:00:56;;;;;;;;;;;20.40;63.50;;;;;;5094509;28;19908;-11
2022/10/11 13:03:41;;;;;;;;;;;20.40;63.20;;;;;;5093522;28;19908;-11
2022/10/11 13:06:15;;;;;;;;;;;20.30;63.70;;;;;;5094469;28;19923;-10
2022/10/11 13:08:45;;;;;;;;;;;20.30;63.80;;;;;;5077373;28;20300;-10
2022/10/11 13:11:15;;;;;;;;;;;20.30;64.20;;;;;;5095205;28;19912;-9
2022/10/11 13:13:48;;;;;;;;;;;20.30;64.50;;;;;;5095306;28;19951;-11
2022/10/11 13:16:18;;;;;;;;;;;20.20;64.90;;;;;;5094120;28;20324;-10
2022/10/11 13:18:45;;;;;;;;;;;20.20;65.30;;;;;;5094556;28;19920;-11
2022/10/11 13:21:31;;;;;;;;;;;20.20;65.50;;;;;;5094100;28;19919;-9
2022/10/11 13:23:58;;;;;;;;;;;20.20;65.80;;;;;;5097697;28;19908;-10
2022/10/11 13:26:24;;;;;;;;;;;20.20;66.20;;;;;;5098098;28;20022;-12
2022/10/11 13:28:50;;;;;;;;;;;20.10;66.40;;;;;;5096956;28;19908;-11
2022/10/11 13:31:16;;;;;;;;;;;20.10;66.80;;;;;;5097602;28;20189;-11
2022/10/11 13:33:43;;;;;;;;;;;20.10;66.90;;;;;;5099023;28;19919;-10
2022/10/11 13:36:14;;;;;;;;;;;20.10;66.50;;;;;;5096970;28;19916;-11
2022/10/11 13:38:39;;;;;;;;;;;20.10;66.80;;;;;;5098313;28;20281;-10
2022/10/11 13:41:09;;;;;;;;;;;20.00;67.10;;;;;;5097463;28;19969;-12
2022/10/11 13:43:35;;;;;;;;;;;20.00;67.80;;;;;;5098157;28;19930;-11
2022/10/11 13:46:03;;;;;;;;;;;20.00;68.10;;;;;;5097788;28;20491;-10
2022/10/11 13:48:29;;;;;;;;;;;20.00;68.20;;;;;;5096967;28;20425;-10
2022/10/11 13:51:10;;;;;;;;;;;20.00;68.40;;;;;;5093826;28;19908;-11
2022/10/11 13:53:36;;;;;;;;;;;19.90;68.20;;;;;;5076889;28;19917;-10
2022/10/11 13:56:03;;;;;;;;;;;19.90;68.60;;;;;;5076362;28;19920;-11
2022/10/11 13:58:35;;;;;;;;;;;19.90;69.00;;;;;;5076619;28;19944;-10
2022/10/11 14:01:03;;;;;;;;;;;19.90;68.80;;;;;;5059697;28;19908;-11
2022/10/11 14:03:37;;;;;;;;;;;19.90;69.00;;;;;;5076942;28;19912;-10
2022/10/11 14:06:03;;;;;;;;;;;19.80;68.70;;;;;;5076321;28;19909;-9
2022/10/11 14:08:31;;;;;;;;;;;19.80;68.50;;;;;;5076109;28;19908;-11
2022/10/11 14:10:57;;;;;;;;;;;19.90;68.50;;;;;;5075481;28;19908;-9
2022/10/11 14:13:29;;;;;;;;;;;19.90;68.30;;;;;;5076113;28;19962;-11
2022/10/11 14:15:58;;;;;;;;;;;19.90;68.40;;;;;;5077619;28;20003;-10
2022/10/11 14:18:32;;;;;;;;;;;19.90;68.70;;;;;;5078179;28;19908;-11
2022/10/11 14:21:16;;;;;;;;;;;19.80;69.00;;;;;;5079175;28;19923;-11
2022/10/11 14:23:41;;;;;;;;;;;19.80;69.30;;;;;;5097681;28;19908;-11
2022/10/11 14:26:08;;;;;;;;;;;19.80;69.00;;;;;;5097042;28;20117;-10
2022/10/11 14:28:33;;;;;;;;;;;19.80;68.80;;;;;;5078891;28;19908;-9